sensor_id;sensor_type;location;lat;lon;timestamp;temperature;humidity
67868;SHT31;54672;46.096;14.470;2022-12-10T00:01:12;4.46;99.99
67868;SHT31;54672;46.096;14.470;2022-12-10T00:03:37;4.58;99.99
67868;SHT31;54672;46.096;14.470;2022-12-10T00:06:06;4.51;99.99
67868;SHT31;54672;46.096;14.470;2022-12-10T00:08:32;4.52;99.99
67868;SHT31;54672;46.096;14.470;2022-12-10T00:10:58;4.65;99.99
67868;SHT31;54672;46.096;14.470;2022-12-10T00:13:24;4.69;99.99
67868;SHT31;54672;46.096;14.470;2022-12-10T00:15:49;4.62;99.99
67868;SHT31;54672;46.096;14.470;2022-12-10T00:18:15;4.51;99.99
67868;SHT31;54672;46.096;14.470;2022-12-10T00:20:40;4.49;99.99
67868;SHT31;54672;46.096;14.470;2022-12-10T00:23:06;4.53;99.99
67868;SHT31;54672;46.096;14.470;2022-12-10T00:25:32;4.66;99.99
67868;SHT31;54672;46.096;14.470;2022-12-10T00:27:57;4.62;99.99
67868;SHT31;54672;46.096;14.470;2022-12-10T00:30:23;4.62;99.99
67868;SHT31;54672;46.096;14.470;2022-12-10T00:32:49;4.52;99.99
67868;SHT31;54672;46.096;14.470;2022-12-10T00:35:14;4.59;99.99
67868;SHT31;54672;46.096;14.470;2022-12-10T00:37:39;4.61;99.99
67868;SHT31;54672;46.096;14.470;2022-12-10T00:40:05;4.65;99.99
67868;SHT31;54672;46.096;14.470;2022-12-10T00:42:31;4.69;99.99
67868;SHT31;54672;46.096;14.470;2022-12-10T00:44:56;4.69;99.99
67868;SHT31;54672;46.096;14.470;2022-12-10T00:47:21;4.61;99.99
67868;SHT31;54672;46.096;14.470;2022-12-10T00:49:47;4.56;99.99
67868;SHT31;54672;46.096;14.470;2022-12-10T00:52:12;4.65;99.99
67868;SHT31;54672;46.096;14.470;2022-12-10T00:54:38;4.53;99.99
67868;SHT31;54672;46.096;14.470;2022-12-10T00:57:03;4.49;99.99
67868;SHT31;54672;46.096;14.470;2022-12-10T00:59:28;4.52;99.99
67868;SHT31;54672;46.096;14.470;2022-12-10T01:01:54;4.46;99.99
67868;SHT31;54672;46.096;14.470;2022-12-10T01:04:19;4.49;99.99
67868;SHT31;54672;46.096;14.470;2022-12-10T01:06:49;4.53;99.99
67868;SHT31;54672;46.096;14.470;2022-12-10T01:09:26;4.61;99.99
67868;SHT31;54672;46.096;14.470;2022-12-10T01:11:52;4.66;99.99
67868;SHT31;54672;46.096;14.470;2022-12-10T01:14:22;4.73;99.99
67868;SHT31;54672;46.096;14.470;2022-12-10T01:16:49;4.76;99.99
67868;SHT31;54672;46.096;14.470;2022-12-10T01:19:14;4.80;99.99
67868;SHT31;54672;46.096;14.470;2022-12-10T01:21:40;4.90;99.99
67868;SHT31;54672;46.096;14.470;2022-12-10T01:24:06;4.89;99.99
67868;SHT31;54672;46.096;14.470;2022-12-10T01:26:33;4.83;99.99
67868;SHT31;54672;46.096;14.470;2022-12-10T01:28:59;4.83;99.99
67868;SHT31;54672;46.096;14.470;2022-12-10T01:33:51;4.79;99.99
67868;SHT31;54672;46.096;14.470;2022-12-10T01:36:22;4.86;99.99
67868;SHT31;54672;46.096;14.470;2022-12-10T01:38:49;4.83;99.99
67868;SHT31;54672;46.096;14.470;2022-12-10T01:41:21;4.84;99.99
67868;SHT31;54672;46.096;14.470;2022-12-10T01:46:14;4.82;99.99
67868;SHT31;54672;46.096;14.470;2022-12-10T01:48:39;4.80;99.99
67868;SHT31;54672;46.096;14.470;2022-12-10T01:51:06;4.79;99.99
67868;SHT31;54672;46.096;14.470;2022-12-10T01:53:31;4.65;99.99
67868;SHT31;54672;46.096;14.470;2022-12-10T01:55:57;4.55;99.99
67868;SHT31;54672;46.096;14.470;2022-12-10T01:58:22;4.49;99.99
67868;SHT31;54672;46.096;14.470;2022-12-10T02:01:04;4.58;99.99
67868;SHT31;54672;46.096;14.470;2022-12-10T02:03:40;4.56;99.99
67868;SHT31;54672;46.096;14.470;2022-12-10T02:14:32;4.22;99.99
67868;SHT31;54672;46.096;14.470;2022-12-10T02:20:07;4.27;99.99
67868;SHT31;54672;46.096;14.470;2022-12-10T02:22:44;4.21;99.99
67868;SHT31;54672;46.096;14.470;2022-12-10T02:25:13;4.22;99.99
67868;SHT31;54672;46.096;14.470;2022-12-10T02:27:51;4.24;99.99
67868;SHT31;54672;46.096;14.470;2022-12-10T02:30:18;4.31;99.99
67868;SHT31;54672;46.096;14.470;2022-12-10T02:32:44;4.38;99.99
67868;SHT31;54672;46.096;14.470;2022-12-10T02:35:24;4.52;99.99
67868;SHT31;54672;46.096;14.470;2022-12-10T02:38:06;4.51;99.99
67868;SHT31;54672;46.096;14.470;2022-12-10T02:40:36;4.53;99.99
67868;SHT31;54672;46.096;14.470;2022-12-10T02:43:02;4.56;99.99
67868;SHT31;54672;46.096;14.470;2022-12-10T02:45:29;4.66;99.99
67868;SHT31;54672;46.096;14.470;2022-12-10T02:48:00;4.68;99.99
67868;SHT31;54672;46.096;14.470;2022-12-10T02:50:26;4.76;99.99
67868;SHT31;54672;46.096;14.470;2022-12-10T02:52:52;4.73;99.99
67868;SHT31;54672;46.096;14.470;2022-12-10T02:55:18;4.75;99.99
67868;SHT31;54672;46.096;14.470;2022-12-10T03:00:31;4.80;99.99
67868;SHT31;54672;46.096;14.470;2022-12-10T03:03:19;4.87;99.99
67868;SHT31;54672;46.096;14.470;2022-12-10T03:08:34;4.92;99.99
67868;SHT31;54672;46.096;14.470;2022-12-10T03:11:14;4.93;99.99
67868;SHT31;54672;46.096;14.470;2022-12-10T03:16:11;4.84;99.99
67868;SHT31;54672;46.096;14.470;2022-12-10T03:18:37;4.69;99.99
67868;SHT31;54672;46.096;14.470;2022-12-10T03:21:05;4.69;99.99
67868;SHT31;54672;46.096;14.470;2022-12-10T03:23:33;4.72;99.99
67868;SHT31;54672;46.096;14.470;2022-12-10T03:26:00;4.55;99.99
67868;SHT31;54672;46.096;14.470;2022-12-10T03:28:31;4.48;99.99
67868;SHT31;54672;46.096;14.470;2022-12-10T03:30:58;4.44;99.99
67868;SHT31;54672;46.096;14.470;2022-12-10T03:33:23;4.40;99.99
67868;SHT31;54672;46.096;14.470;2022-12-10T03:35:49;4.41;99.99
67868;SHT31;54672;46.096;14.470;2022-12-10T03:38:15;4.35;99.99
67868;SHT31;54672;46.096;14.470;2022-12-10T03:40:42;4.35;99.99
67868;SHT31;54672;46.096;14.470;2022-12-10T03:43:07;4.31;99.99
67868;SHT31;54672;46.096;14.470;2022-12-10T03:45:33;4.34;99.99
67868;SHT31;54672;46.096;14.470;2022-12-10T03:47:58;4.42;99.99
67868;SHT31;54672;46.096;14.470;2022-12-10T03:50:23;4.52;99.99
67868;SHT31;54672;46.096;14.470;2022-12-10T03:52:49;4.61;99.99
67868;SHT31;54672;46.096;14.470;2022-12-10T03:55:14;4.71;99.99
67868;SHT31;54672;46.096;14.470;2022-12-10T03:57:40;4.75;99.99
67868;SHT31;54672;46.096;14.470;2022-12-10T04:00:06;4.83;99.99
67868;SHT31;54672;46.096;14.470;2022-12-10T04:02:32;4.82;99.99
67868;SHT31;54672;46.096;14.470;2022-12-10T04:04:57;4.82;99.99
67868;SHT31;54672;46.096;14.470;2022-12-10T04:07:23;4.87;99.99
67868;SHT31;54672;46.096;14.470;2022-12-10T04:09:48;4.92;99.99
67868;SHT31;54672;46.096;14.470;2022-12-10T04:12:13;4.89;99.99
67868;SHT31;54672;46.096;14.470;2022-12-10T04:14:39;4.97;99.99
67868;SHT31;54672;46.096;14.470;2022-12-10T04:17:24;4.94;99.99
67868;SHT31;54672;46.096;14.470;2022-12-10T04:19:49;4.94;99.99
67868;SHT31;54672;46.096;14.470;2022-12-10T04:22:14;4.96;99.99
67868;SHT31;54672;46.096;14.470;2022-12-10T04:24:58;4.94;99.99
67868;SHT31;54672;46.096;14.470;2022-12-10T04:27:42;4.96;99.99
67868;SHT31;54672;46.096;14.470;2022-12-10T04:30:10;4.93;99.99
67868;SHT31;54672;46.096;14.470;2022-12-10T04:32:36;4.99;99.99
67868;SHT31;54672;46.096;14.470;2022-12-10T04:35:02;5.01;99.99
67868;SHT31;54672;46.096;14.470;2022-12-10T04:37:28;5.03;99.99
67868;SHT31;54672;46.096;14.470;2022-12-10T04:39:53;4.89;99.99
67868;SHT31;54672;46.096;14.470;2022-12-10T04:42:20;4.90;99.99
67868;SHT31;54672;46.096;14.470;2022-12-10T04:44:46;5.01;99.99
67868;SHT31;54672;46.096;14.470;2022-12-10T04:47:12;5.17;99.99
67868;SHT31;54672;46.096;14.470;2022-12-10T04:49:38;5.07;99.99
67868;SHT31;54672;46.096;14.470;2022-12-10T04:52:04;5.04;99.99
67868;SHT31;54672;46.096;14.470;2022-12-10T04:54:30;5.12;99.99
67868;SHT31;54672;46.096;14.470;2022-12-10T04:56:56;5.09;99.99
67868;SHT31;54672;46.096;14.470;2022-12-10T04:59:21;5.13;99.99
67868;SHT31;54672;46.096;14.470;2022-12-10T05:01:47;5.04;99.99
67868;SHT31;54672;46.096;14.470;2022-12-10T05:04:15;4.73;99.99
67868;SHT31;54672;46.096;14.470;2022-12-10T05:06:41;4.66;99.99
67868;SHT31;54672;46.096;14.470;2022-12-10T05:09:07;4.55;99.99
67868;SHT31;54672;46.096;14.470;2022-12-10T05:11:33;4.56;99.99
67868;SHT31;54672;46.096;14.470;2022-12-10T05:14:00;4.65;99.99
67868;SHT31;54672;46.096;14.470;2022-12-10T05:16:28;4.76;99.99
67868;SHT31;54672;46.096;14.470;2022-12-10T05:18:55;4.77;99.99
67868;SHT31;54672;46.096;14.470;2022-12-10T05:21:22;4.79;99.99
67868;SHT31;54672;46.096;14.470;2022-12-10T05:23:50;4.55;99.99
67868;SHT31;54672;46.096;14.470;2022-12-10T05:26:19;4.44;99.99
67868;SHT31;54672;46.096;14.470;2022-12-10T05:28:47;4.38;99.99
67868;SHT31;54672;46.096;14.470;2022-12-10T05:31:18;4.41;99.99
67868;SHT31;54672;46.096;14.470;2022-12-10T05:33:44;4.37;99.99
67868;SHT31;54672;46.096;14.470;2022-12-10T05:36:11;4.30;99.99
67868;SHT31;54672;46.096;14.470;2022-12-10T05:38:37;4.31;99.99
67868;SHT31;54672;46.096;14.470;2022-12-10T05:41:05;4.34;99.99
67868;SHT31;54672;46.096;14.470;2022-12-10T05:43:31;4.27;99.99
67868;SHT31;54672;46.096;14.470;2022-12-10T05:46:08;4.27;99.99
67868;SHT31;54672;46.096;14.470;2022-12-10T05:48:35;4.27;99.99
67868;SHT31;54672;46.096;14.470;2022-12-10T05:51:09;4.28;99.99
67868;SHT31;54672;46.096;14.470;2022-12-10T05:53:35;4.31;99.99
67868;SHT31;54672;46.096;14.470;2022-12-10T05:56:04;4.30;99.99
67868;SHT31;54672;46.096;14.470;2022-12-10T05:58:30;4.31;99.99
67868;SHT31;54672;46.096;14.470;2022-12-10T06:00:56;4.27;99.99
67868;SHT31;54672;46.096;14.470;2022-12-10T06:03:22;4.31;99.99
67868;SHT31;54672;46.096;14.470;2022-12-10T06:05:48;4.35;99.99
67868;SHT31;54672;46.096;14.470;2022-12-10T06:08:13;4.34;99.99
67868;SHT31;54672;46.096;14.470;2022-12-10T06:10:38;4.34;99.99
67868;SHT31;54672;46.096;14.470;2022-12-10T06:13:04;4.41;99.99
67868;SHT31;54672;46.096;14.470;2022-12-10T06:15:31;4.49;99.99
67868;SHT31;54672;46.096;14.470;2022-12-10T06:17:57;4.48;99.99
67868;SHT31;54672;46.096;14.470;2022-12-10T06:20:24;4.46;99.99
67868;SHT31;54672;46.096;14.470;2022-12-10T06:22:50;4.51;99.99
67868;SHT31;54672;46.096;14.470;2022-12-10T06:25:15;4.52;99.99
67868;SHT31;54672;46.096;14.470;2022-12-10T06:27:40;4.58;99.99
67868;SHT31;54672;46.096;14.470;2022-12-10T06:30:06;4.56;99.99
67868;SHT31;54672;46.096;14.470;2022-12-10T06:32:32;4.63;99.99
67868;SHT31;54672;46.096;14.470;2022-12-10T06:34:57;4.71;99.99
67868;SHT31;54672;46.096;14.470;2022-12-10T06:37:23;4.75;99.99
67868;SHT31;54672;46.096;14.470;2022-12-10T06:39:52;4.73;99.99
67868;SHT31;54672;46.096;14.470;2022-12-10T06:42:21;4.61;99.99
67868;SHT31;54672;46.096;14.470;2022-12-10T06:44:47;4.61;99.99
67868;SHT31;54672;46.096;14.470;2022-12-10T06:47:13;4.59;99.99
67868;SHT31;54672;46.096;14.470;2022-12-10T06:49:39;4.56;99.99
67868;SHT31;54672;46.096;14.470;2022-12-10T06:52:05;4.59;99.99
67868;SHT31;54672;46.096;14.470;2022-12-10T06:54:31;4.62;99.99
67868;SHT31;54672;46.096;14.470;2022-12-10T06:56:56;4.62;99.99
67868;SHT31;54672;46.096;14.470;2022-12-10T06:59:22;4.63;99.99
67868;SHT31;54672;46.096;14.470;2022-12-10T07:01:48;4.63;99.99
67868;SHT31;54672;46.096;14.470;2022-12-10T07:04:14;4.59;99.99
67868;SHT31;54672;46.096;14.470;2022-12-10T07:06:39;4.65;99.99
67868;SHT31;54672;46.096;14.470;2022-12-10T07:09:04;4.63;99.99
67868;SHT31;54672;46.096;14.470;2022-12-10T07:11:30;4.63;99.99
67868;SHT31;54672;46.096;14.470;2022-12-10T07:13:57;4.63;99.99
67868;SHT31;54672;46.096;14.470;2022-12-10T07:16:28;4.66;99.99
67868;SHT31;54672;46.096;14.470;2022-12-10T07:18:56;4.68;99.99
67868;SHT31;54672;46.096;14.470;2022-12-10T07:21:33;4.73;99.99
67868;SHT31;54672;46.096;14.470;2022-12-10T07:24:01;4.86;99.99
67868;SHT31;54672;46.096;14.470;2022-12-10T07:26:29;4.93;99.99
67868;SHT31;54672;46.096;14.470;2022-12-10T07:28:55;4.99;99.99
67868;SHT31;54672;46.096;14.470;2022-12-10T07:31:21;5.03;99.99
67868;SHT31;54672;46.096;14.470;2022-12-10T07:33:48;4.99;99.99
67868;SHT31;54672;46.096;14.470;2022-12-10T07:36:14;5.04;99.99
67868;SHT31;54672;46.096;14.470;2022-12-10T07:38:39;5.17;99.99
67868;SHT31;54672;46.096;14.470;2022-12-10T07:41:07;5.19;99.99
67868;SHT31;54672;46.096;14.470;2022-12-10T07:43:35;5.22;99.99
67868;SHT31;54672;46.096;14.470;2022-12-10T07:46:05;5.17;99.99
67868;SHT31;54672;46.096;14.470;2022-12-10T07:48:31;5.24;99.99
67868;SHT31;54672;46.096;14.470;2022-12-10T07:50:57;5.28;99.99
67868;SHT31;54672;46.096;14.470;2022-12-10T07:53:23;5.28;99.99
67868;SHT31;54672;46.096;14.470;2022-12-10T07:55:48;5.23;99.99
67868;SHT31;54672;46.096;14.470;2022-12-10T07:58:13;5.27;99.99
67868;SHT31;54672;46.096;14.470;2022-12-10T08:00:39;5.31;99.99
67868;SHT31;54672;46.096;14.470;2022-12-10T08:03:04;5.38;99.99
67868;SHT31;54672;46.096;14.470;2022-12-10T08:05:29;5.41;99.99
67868;SHT31;54672;46.096;14.470;2022-12-10T08:07:55;5.35;99.99
67868;SHT31;54672;46.096;14.470;2022-12-10T08:10:20;5.37;99.99
67868;SHT31;54672;46.096;14.470;2022-12-10T08:12:45;5.37;99.99
67868;SHT31;54672;46.096;14.470;2022-12-10T08:15:11;5.44;99.99
67868;SHT31;54672;46.096;14.470;2022-12-10T08:17:36;5.47;99.99
67868;SHT31;54672;46.096;14.470;2022-12-10T08:20:02;5.47;99.99
67868;SHT31;54672;46.096;14.470;2022-12-10T08:22:27;5.51;99.99
67868;SHT31;54672;46.096;14.470;2022-12-10T08:24:52;5.51;99.99
67868;SHT31;54672;46.096;14.470;2022-12-10T08:27:18;5.47;99.99
67868;SHT31;54672;46.096;14.470;2022-12-10T08:29:43;5.52;99.99
67868;SHT31;54672;46.096;14.470;2022-12-10T08:32:08;5.55;99.99
67868;SHT31;54672;46.096;14.470;2022-12-10T08:34:34;5.58;99.99
67868;SHT31;54672;46.096;14.470;2022-12-10T08:36:59;5.62;99.99
67868;SHT31;54672;46.096;14.470;2022-12-10T08:39:25;5.62;99.99
67868;SHT31;54672;46.096;14.470;2022-12-10T08:41:50;5.50;99.99
67868;SHT31;54672;46.096;14.470;2022-12-10T08:44:15;5.35;99.99
67868;SHT31;54672;46.096;14.470;2022-12-10T08:46:41;5.38;99.99
67868;SHT31;54672;46.096;14.470;2022-12-10T08:49:06;5.40;99.99
67868;SHT31;54672;46.096;14.470;2022-12-10T08:51:32;5.33;99.99
67868;SHT31;54672;46.096;14.470;2022-12-10T08:53:58;5.28;99.99
67868;SHT31;54672;46.096;14.470;2022-12-10T08:56:23;5.23;99.99
67868;SHT31;54672;46.096;14.470;2022-12-10T08:58:49;5.17;99.99
67868;SHT31;54672;46.096;14.470;2022-12-10T09:01:16;5.26;99.99
67868;SHT31;54672;46.096;14.470;2022-12-10T09:03:42;5.35;99.99
67868;SHT31;54672;46.096;14.470;2022-12-10T09:06:10;5.26;99.99
67868;SHT31;54672;46.096;14.470;2022-12-10T09:08:36;5.34;99.99
67868;SHT31;54672;46.096;14.470;2022-12-10T09:11:15;5.40;99.99
67868;SHT31;54672;46.096;14.470;2022-12-10T09:13:41;5.41;99.41
67868;SHT31;54672;46.096;14.470;2022-12-10T09:16:07;5.38;99.48
67868;SHT31;54672;46.096;14.470;2022-12-10T09:18:33;5.40;99.45
67868;SHT31;54672;46.096;14.470;2022-12-10T09:20:58;5.40;99.20
67868;SHT31;54672;46.096;14.470;2022-12-10T09:23:24;5.31;99.17
67868;SHT31;54672;46.096;14.470;2022-12-10T09:25:49;5.33;99.57
67868;SHT31;54672;46.096;14.470;2022-12-10T09:28:15;5.28;99.58
67868;SHT31;54672;46.096;14.470;2022-12-10T09:30:40;5.31;99.44
67868;SHT31;54672;46.096;14.470;2022-12-10T09:33:05;5.27;99.71
67868;SHT31;54672;46.096;14.470;2022-12-10T09:35:31;5.33;99.35
67868;SHT31;54672;46.096;14.470;2022-12-10T09:37:56;5.31;98.89
67868;SHT31;54672;46.096;14.470;2022-12-10T09:40:32;5.30;98.57
67868;SHT31;54672;46.096;14.470;2022-12-10T09:46:13;5.31;99.17
67868;SHT31;54672;46.096;14.470;2022-12-10T09:51:24;5.23;99.16
67868;SHT31;54672;46.096;14.470;2022-12-10T09:53:52;5.20;99.16
67868;SHT31;54672;46.096;14.470;2022-12-10T09:56:36;5.22;99.42
67868;SHT31;54672;46.096;14.470;2022-12-10T09:59:15;5.26;99.51
67868;SHT31;54672;46.096;14.470;2022-12-10T10:01:43;5.30;99.79
67868;SHT31;54672;46.096;14.470;2022-12-10T10:04:09;5.31;99.13
67868;SHT31;54672;46.096;14.470;2022-12-10T10:06:35;5.31;99.10
67868;SHT31;54672;46.096;14.470;2022-12-10T10:09:02;5.31;98.50
67868;SHT31;54672;46.096;14.470;2022-12-10T10:11:30;5.33;98.64
67868;SHT31;54672;46.096;14.470;2022-12-10T10:14:24;5.27;98.46
67868;SHT31;54672;46.096;14.470;2022-12-10T10:17:09;5.24;98.13
67868;SHT31;54672;46.096;14.470;2022-12-10T10:19:35;5.20;98.99
67868;SHT31;54672;46.096;14.470;2022-12-10T10:22:04;5.23;98.30
67868;SHT31;54672;46.096;14.470;2022-12-10T10:24:41;5.19;97.88
67868;SHT31;54672;46.096;14.470;2022-12-10T10:27:17;5.17;97.84
67868;SHT31;54672;46.096;14.470;2022-12-10T10:29:46;5.14;98.22
67868;SHT31;54672;46.096;14.470;2022-12-10T10:32:19;5.22;98.71
67868;SHT31;54672;46.096;14.470;2022-12-10T10:34:46;5.19;97.42
67868;SHT31;54672;46.096;14.470;2022-12-10T10:37:41;5.17;98.07
67868;SHT31;54672;46.096;14.470;2022-12-10T10:40:22;5.19;98.78
67868;SHT31;54672;46.096;14.470;2022-12-10T10:42:48;5.23;98.64
67868;SHT31;54672;46.096;14.470;2022-12-10T10:45:39;5.22;98.27
67868;SHT31;54672;46.096;14.470;2022-12-10T10:50:37;5.20;99.10
67868;SHT31;54672;46.096;14.470;2022-12-10T10:55:53;5.17;99.43
67868;SHT31;54672;46.096;14.470;2022-12-10T10:58:20;5.19;99.98
67868;SHT31;54672;46.096;14.470;2022-12-10T11:01:02;5.24;99.51
67868;SHT31;54672;46.096;14.470;2022-12-10T11:03:29;5.28;99.07
67868;SHT31;54672;46.096;14.470;2022-12-10T11:05:57;5.33;98.57
67868;SHT31;54672;46.096;14.470;2022-12-10T11:08:25;5.28;98.26
67868;SHT31;54672;46.096;14.470;2022-12-10T11:11:02;5.37;98.24
67868;SHT31;54672;46.096;14.470;2022-12-10T11:13:32;5.38;98.37
67868;SHT31;54672;46.096;14.470;2022-12-10T11:18:34;5.30;97.29
67868;SHT31;54672;46.096;14.470;2022-12-10T11:23:42;5.23;97.66
67868;SHT31;54672;46.096;14.470;2022-12-10T11:34:30;5.13;98.33
67868;SHT31;54672;46.096;14.470;2022-12-10T11:40:11;5.17;98.69
67868;SHT31;54672;46.096;14.470;2022-12-10T11:43:00;5.07;97.49
67868;SHT31;54672;46.096;14.470;2022-12-10T11:58:56;4.90;97.26
67868;SHT31;54672;46.096;14.470;2022-12-10T12:12:05;4.87;98.06
67868;SHT31;54672;46.096;14.470;2022-12-10T12:14:40;4.92;97.83
67868;SHT31;54672;46.096;14.470;2022-12-10T12:17:27;4.89;98.26
67868;SHT31;54672;46.096;14.470;2022-12-10T12:19:56;4.92;97.96
67868;SHT31;54672;46.096;14.470;2022-12-10T12:22:36;4.96;98.43
67868;SHT31;54672;46.096;14.470;2022-12-10T12:25:20;5.00;98.29
67868;SHT31;54672;46.096;14.470;2022-12-10T12:27:51;5.01;98.24
67868;SHT31;54672;46.096;14.470;2022-12-10T12:30:20;5.01;98.89
67868;SHT31;54672;46.096;14.470;2022-12-10T12:35:21;5.04;99.06
67868;SHT31;54672;46.096;14.470;2022-12-10T12:38:06;5.03;98.30
67868;SHT31;54672;46.096;14.470;2022-12-10T12:41:06;5.13;97.43
67868;SHT31;54672;46.096;14.470;2022-12-10T12:46:01;5.12;98.68
67868;SHT31;54672;46.096;14.470;2022-12-10T12:48:44;5.23;98.50
67868;SHT31;54672;46.096;14.470;2022-12-10T12:51:32;5.13;97.36
67868;SHT31;54672;46.096;14.470;2022-12-10T12:53:59;5.13;97.47
67868;SHT31;54672;46.096;14.470;2022-12-10T12:59:26;5.04;95.92
67868;SHT31;54672;46.096;14.470;2022-12-10T13:02:01;4.99;96.87
67868;SHT31;54672;46.096;14.470;2022-12-10T13:04:28;4.96;96.76
67868;SHT31;54672;46.096;14.470;2022-12-10T13:09:51;4.89;97.39
67868;SHT31;54672;46.096;14.470;2022-12-10T13:12:27;4.87;97.67
67868;SHT31;54672;46.096;14.470;2022-12-10T13:19:50;4.84;98.36
67868;SHT31;54672;46.096;14.470;2022-12-10T13:25:16;4.87;98.04
67868;SHT31;54672;46.096;14.470;2022-12-10T13:27:54;4.92;97.98
67868;SHT31;54672;46.096;14.470;2022-12-10T13:30:35;4.90;97.66
67868;SHT31;54672;46.096;14.470;2022-12-10T13:33:17;4.93;98.05
67868;SHT31;54672;46.096;14.470;2022-12-10T13:35:56;4.96;97.84
67868;SHT31;54672;46.096;14.470;2022-12-10T13:38:24;4.97;97.46
67868;SHT31;54672;46.096;14.470;2022-12-10T13:40:59;4.92;97.60
67868;SHT31;54672;46.096;14.470;2022-12-10T13:43:50;4.86;97.59
67868;SHT31;54672;46.096;14.470;2022-12-10T14:03:27;4.87;97.86
67868;SHT31;54672;46.096;14.470;2022-12-10T14:08:28;4.89;98.31
67868;SHT31;54672;46.096;14.470;2022-12-10T14:10:57;4.90;98.62
67868;SHT31;54672;46.096;14.470;2022-12-10T14:13:38;4.83;99.21
67868;SHT31;54672;46.096;14.470;2022-12-10T14:16:05;4.90;98.01
67868;SHT31;54672;46.096;14.470;2022-12-10T14:18:35;4.87;97.64
67868;SHT31;54672;46.096;14.470;2022-12-10T14:21:04;4.77;98.39
67868;SHT31;54672;46.096;14.470;2022-12-10T14:23:32;4.73;99.34
67868;SHT31;54672;46.096;14.470;2022-12-10T14:25:58;4.73;99.23
67868;SHT31;54672;46.096;14.470;2022-12-10T14:28:29;4.77;99.27
67868;SHT31;54672;46.096;14.470;2022-12-10T14:30:55;4.75;99.50
67868;SHT31;54672;46.096;14.470;2022-12-10T14:33:22;4.75;99.17
67868;SHT31;54672;46.096;14.470;2022-12-10T14:35:50;4.69;99.21
67868;SHT31;54672;46.096;14.470;2022-12-10T14:38:41;4.69;98.93
67868;SHT31;54672;46.096;14.470;2022-12-10T14:41:20;4.69;98.88
67868;SHT31;54672;46.096;14.470;2022-12-10T14:43:46;4.66;98.95
67868;SHT31;54672;46.096;14.470;2022-12-10T14:46:16;4.68;99.00
67868;SHT31;54672;46.096;14.470;2022-12-10T14:48:42;4.68;99.14
67868;SHT31;54672;46.096;14.470;2022-12-10T14:51:14;4.68;98.32
67868;SHT31;54672;46.096;14.470;2022-12-10T14:53:40;4.65;98.00
67868;SHT31;54672;46.096;14.470;2022-12-10T14:56:07;4.53;96.92
67868;SHT31;54672;46.096;14.470;2022-12-10T14:58:40;4.45;97.36
67868;SHT31;54672;46.096;14.470;2022-12-10T15:01:27;4.40;97.83
67868;SHT31;54672;46.096;14.470;2022-12-10T15:03:53;4.34;98.57
67868;SHT31;54672;46.096;14.470;2022-12-10T15:06:20;4.31;98.50
67868;SHT31;54672;46.096;14.470;2022-12-10T15:08:46;4.21;98.08
67868;SHT31;54672;46.096;14.470;2022-12-10T15:11:20;4.10;98.18
67868;SHT31;54672;46.096;14.470;2022-12-10T15:13:48;4.03;97.72
67868;SHT31;54672;46.096;14.470;2022-12-10T15:16:21;3.94;97.74
67868;SHT31;54672;46.096;14.470;2022-12-10T15:18:52;3.89;97.68
67868;SHT31;54672;46.096;14.470;2022-12-10T15:21:22;3.83;97.95
67868;SHT31;54672;46.096;14.470;2022-12-10T15:23:48;3.77;98.14
67868;SHT31;54672;46.096;14.470;2022-12-10T15:28:51;3.70;98.37
67868;SHT31;54672;46.096;14.470;2022-12-10T15:34:21;3.60;97.61
67868;SHT31;54672;46.096;14.470;2022-12-10T15:36:51;3.52;97.79
67868;SHT31;54672;46.096;14.470;2022-12-10T15:44:59;3.33;98.09
67868;SHT31;54672;46.096;14.470;2022-12-10T15:47:26;3.28;98.37
67868;SHT31;54672;46.096;14.470;2022-12-10T15:49:54;3.23;98.03
67868;SHT31;54672;46.096;14.470;2022-12-10T15:52:23;3.21;97.92
67868;SHT31;54672;46.096;14.470;2022-12-10T15:54:51;3.18;97.88
67868;SHT31;54672;46.096;14.470;2022-12-10T15:59:49;3.11;97.92
67868;SHT31;54672;46.096;14.470;2022-12-10T16:04:52;3.11;98.53
67868;SHT31;54672;46.096;14.470;2022-12-10T16:07:18;3.08;98.28
67868;SHT31;54672;46.096;14.470;2022-12-10T16:09:45;3.04;99.33
67868;SHT31;54672;46.096;14.470;2022-12-10T16:12:15;3.00;98.12
67868;SHT31;54672;46.096;14.470;2022-12-10T16:14:46;3.00;98.75
67868;SHT31;54672;46.096;14.470;2022-12-10T16:17:12;2.92;98.78
67868;SHT31;54672;46.096;14.470;2022-12-10T16:19:38;2.92;97.77
67868;SHT31;54672;46.096;14.470;2022-12-10T16:22:04;2.85;97.76
67868;SHT31;54672;46.096;14.470;2022-12-10T16:24:30;2.80;98.61
67868;SHT31;54672;46.096;14.470;2022-12-10T16:26:55;2.79;98.07
67868;SHT31;54672;46.096;14.470;2022-12-10T16:29:21;2.77;97.82
67868;SHT31;54672;46.096;14.470;2022-12-10T16:31:46;2.64;98.75
67868;SHT31;54672;46.096;14.470;2022-12-10T16:34:12;2.70;98.47
67868;SHT31;54672;46.096;14.470;2022-12-10T16:36:38;2.74;98.09
67868;SHT31;54672;46.096;14.470;2022-12-10T16:39:03;2.74;98.35
67868;SHT31;54672;46.096;14.470;2022-12-10T16:41:30;2.74;98.05
67868;SHT31;54672;46.096;14.470;2022-12-10T16:43:55;2.68;98.39
67868;SHT31;54672;46.096;14.470;2022-12-10T16:46:21;2.70;98.89
67868;SHT31;54672;46.096;14.470;2022-12-10T16:48:47;2.68;98.90
67868;SHT31;54672;46.096;14.470;2022-12-10T16:51:21;2.73;98.84
67868;SHT31;54672;46.096;14.470;2022-12-10T16:53:47;2.74;98.11
67868;SHT31;54672;46.096;14.470;2022-12-10T16:56:15;2.70;97.53
67868;SHT31;54672;46.096;14.470;2022-12-10T16:58:41;2.65;98.20
67868;SHT31;54672;46.096;14.470;2022-12-10T17:01:33;2.65;97.92
67868;SHT31;54672;46.096;14.470;2022-12-10T17:04:00;2.61;98.12
67868;SHT31;54672;46.096;14.470;2022-12-10T17:06:26;2.61;98.27
67868;SHT31;54672;46.096;14.470;2022-12-10T17:08:51;2.56;98.68
67868;SHT31;54672;46.096;14.470;2022-12-10T17:11:27;2.53;99.53
67868;SHT31;54672;46.096;14.470;2022-12-10T17:14:25;2.63;99.38
67868;SHT31;54672;46.096;14.470;2022-12-10T17:16:53;2.52;98.43
67868;SHT31;54672;46.096;14.470;2022-12-10T17:19:19;2.52;98.47
67868;SHT31;54672;46.096;14.470;2022-12-10T17:21:45;2.42;98.11
67868;SHT31;54672;46.096;14.470;2022-12-10T17:24:11;2.36;98.19
67868;SHT31;54672;46.096;14.470;2022-12-10T17:26:39;2.22;98.60
67868;SHT31;54672;46.096;14.470;2022-12-10T17:29:13;2.22;98.82
67868;SHT31;54672;46.096;14.470;2022-12-10T17:31:39;2.18;99.08
67868;SHT31;54672;46.096;14.470;2022-12-10T17:34:05;2.18;98.40
67868;SHT31;54672;46.096;14.470;2022-12-10T17:36:31;2.09;98.57
67868;SHT31;54672;46.096;14.470;2022-12-10T17:38:57;2.09;98.59
67868;SHT31;54672;46.096;14.470;2022-12-10T17:41:22;2.05;98.76
67868;SHT31;54672;46.096;14.470;2022-12-10T17:43:48;2.01;99.29
67868;SHT31;54672;46.096;14.470;2022-12-10T17:46:17;1.97;99.32
67868;SHT31;54672;46.096;14.470;2022-12-10T17:48:43;2.02;99.38
67868;SHT31;54672;46.096;14.470;2022-12-10T17:51:11;2.01;99.27